RW275 USTR-USSS
Flight info
| Callsign | RW275 |
|---|---|
| Flight time | 1h 6m |
| Altitude | 14000 |
| Route | BEPAR T448 SOPUS |
| Aircraft | DA42/L-VGDW/C |
Departure
| Time | 2026-04-21 17:34 |
|---|---|
| Airport | Roshchino International Airport (USTR) |
Arrival
| Time | 2026-04-21 18:40 |
|---|---|
| Airport | Koltsovo Airport (USSS) |
| Time | Latitude | Longitude | Altitude | Speed | Heading |
|---|---|---|---|---|---|
| 2026-04-21 17:03 | 57.17905 | 65.34831 | 333 ft | 0 kts | 45° |
| 2026-04-21 17:20 | 57.17925 | 65.34858 | 335 ft | 6 kts | 19° |
| 2026-04-21 17:20 | 57.17945 | 65.34844 | 335 ft | 8 kts | 313° |
| 2026-04-21 17:21 | 57.17966 | 65.34814 | 334 ft | 4 kts | 319° |
| 2026-04-21 17:21 | 57.17984 | 65.34776 | 335 ft | 0 kts | 310° |
| 2026-04-21 17:21 | 57.17986 | 65.34772 | 333 ft | 0 kts | 299° |
| 2026-04-21 17:21 | 57.18009 | 65.34728 | 335 ft | 11 kts | 315° |
| 2026-04-21 17:22 | 57.18050 | 65.34653 | 334 ft | 15 kts | 315° |
| 2026-04-21 17:22 | 57.18172 | 65.34423 | 335 ft | 18 kts | 314° |
| 2026-04-21 17:22 | 57.18252 | 65.34279 | 335 ft | 14 kts | 314° |
| 2026-04-21 17:22 | 57.18314 | 65.34158 | 332 ft | 13 kts | 314° |
| 2026-04-21 17:23 | 57.18377 | 65.34045 | 334 ft | 13 kts | 313° |
| 2026-04-21 17:23 | 57.18450 | 65.33909 | 334 ft | 17 kts | 315° |
| 2026-04-21 17:23 | 57.18538 | 65.33747 | 334 ft | 19 kts | 313° |
| 2026-04-21 17:23 | 57.18617 | 65.33577 | 333 ft | 15 kts | 267° |
| 2026-04-21 17:24 | 57.18616 | 65.33364 | 334 ft | 18 kts | 253° |
| 2026-04-21 17:24 | 57.18526 | 65.33188 | 330 ft | 21 kts | 226° |
| 2026-04-21 17:24 | 57.18488 | 65.33103 | 327 ft | 0 kts | 242° |
| 2026-04-21 17:24 | 57.18477 | 65.33031 | 327 ft | 15 kts | 269° |
| 2026-04-21 17:25 | 57.18472 | 65.32806 | 325 ft | 16 kts | 268° |
| 2026-04-21 17:25 | 57.18469 | 65.32599 | 323 ft | 16 kts | 269° |
| 2026-04-21 17:25 | 57.18465 | 65.32415 | 322 ft | 10 kts | 265° |
| 2026-04-21 17:25 | 57.18466 | 65.32302 | 325 ft | 7 kts | 269° |
| 2026-04-21 17:26 | 57.18463 | 65.32221 | 327 ft | 6 kts | 266° |
| 2026-04-21 17:26 | 57.18460 | 65.32102 | 331 ft | 14 kts | 267° |
| 2026-04-21 17:26 | 57.18456 | 65.31872 | 336 ft | 20 kts | 269° |
| 2026-04-21 17:26 | 57.18432 | 65.31713 | 346 ft | 10 kts | 227° |
| 2026-04-21 17:27 | 57.18387 | 65.31623 | 346 ft | 10 kts | 227° |
| 2026-04-21 17:27 | 57.18309 | 65.31467 | 351 ft | 25 kts | 228° |
| 2026-04-21 17:27 | 57.18188 | 65.31218 | 357 ft | 27 kts | 228° |
| 2026-04-21 17:27 | 57.18060 | 65.30959 | 363 ft | 28 kts | 227° |
| 2026-04-21 17:28 | 57.17926 | 65.30688 | 368 ft | 28 kts | 227° |
| 2026-04-21 17:28 | 57.17811 | 65.30455 | 372 ft | 21 kts | 228° |
| 2026-04-21 17:28 | 57.17711 | 65.30251 | 375 ft | 25 kts | 228° |
| 2026-04-21 17:28 | 57.17582 | 65.29989 | 378 ft | 29 kts | 227° |
| 2026-04-21 17:29 | 57.17465 | 65.29753 | 380 ft | 21 kts | 227° |
| 2026-04-21 17:29 | 57.17388 | 65.29597 | 381 ft | 14 kts | 229° |
| 2026-04-21 17:29 | 57.17402 | 65.29484 | 381 ft | 0 kts | 318° |
| 2026-04-21 17:29 | 57.17416 | 65.29457 | 381 ft | 10 kts | 312° |
| 2026-04-21 17:30 | 57.17427 | 65.29436 | 381 ft | 0 kts | 316° |
| 2026-04-21 17:31 | 57.17468 | 65.29369 | 381 ft | 11 kts | 320° |
| 2026-04-21 17:31 | 57.17522 | 65.29333 | 380 ft | 9 kts | 26° |
| 2026-04-21 17:32 | 57.17532 | 65.29347 | 380 ft | 0 kts | 45° |
| 2026-04-21 17:33 | 57.17549 | 65.29381 | 380 ft | 23 kts | 47° |
| 2026-04-21 17:33 | 57.17802 | 65.29914 | 375 ft | 82 kts | 54° |
| 2026-04-21 17:33 | 57.18241 | 65.30771 | 513 ft | 99 kts | 49° |
| 2026-04-21 17:33 | 57.18734 | 65.31715 | 743 ft | 104 kts | 50° |
| 2026-04-21 17:34 | 57.19252 | 65.32704 | 1075 ft | 110 kts | 50° |
| 2026-04-21 17:34 | 57.19940 | 65.33223 | 1598 ft | 112 kts | 23° |
| 2026-04-21 17:34 | 57.20755 | 65.33433 | 1886 ft | 123 kts | 18° |
| 2026-04-21 17:34 | 57.21649 | 65.33373 | 2207 ft | 137 kts | 346° |
| 2026-04-21 17:35 | 57.22416 | 65.32382 | 2581 ft | 133 kts | 297° |
| 2026-04-21 17:35 | 57.22680 | 65.30934 | 3012 ft | 107 kts | 250° |
| 2026-04-21 17:35 | 57.22412 | 65.29899 | 3440 ft | 82 kts | 210° |
| 2026-04-21 17:35 | 57.21963 | 65.29257 | 3805 ft | 82 kts | 210° |
| 2026-04-21 17:36 | 57.21502 | 65.28595 | 4102 ft | 85 kts | 216° |
| 2026-04-21 17:36 | 57.21112 | 65.27754 | 4443 ft | 88 kts | 230° |
| 2026-04-21 17:36 | 57.20923 | 65.26645 | 4783 ft | 91 kts | 246° |
| 2026-04-21 17:36 | 57.20791 | 65.25484 | 5093 ft | 94 kts | 249° |
| 2026-04-21 17:37 | 57.20676 | 65.24293 | 5414 ft | 95 kts | 251° |
| 2026-04-21 17:37 | 57.20576 | 65.23104 | 5740 ft | 96 kts | 254° |
| 2026-04-21 17:37 | 57.20527 | 65.22279 | 5975 ft | 96 kts | 254° |
| 2026-04-21 17:37 | 57.20438 | 65.20658 | 6390 ft | 97 kts | 255° |
| 2026-04-21 17:38 | 57.20373 | 65.19416 | 6703 ft | 98 kts | 255° |
| 2026-04-21 17:38 | 57.20308 | 65.18173 | 7025 ft | 98 kts | 255° |
| 2026-04-21 17:38 | 57.20244 | 65.16923 | 7339 ft | 98 kts | 255° |
| 2026-04-21 17:38 | 57.20180 | 65.15667 | 7655 ft | 99 kts | 255° |
| 2026-04-21 17:39 | 57.20114 | 65.14402 | 7975 ft | 99 kts | 255° |
| 2026-04-21 17:39 | 57.20049 | 65.13133 | 8307 ft | 100 kts | 255° |
| 2026-04-21 17:39 | 57.19983 | 65.11854 | 8633 ft | 100 kts | 255° |
| 2026-04-21 17:39 | 57.19917 | 65.10570 | 8961 ft | 101 kts | 255° |
| 2026-04-21 17:40 | 57.19850 | 65.09279 | 9292 ft | 101 kts | 255° |
| 2026-04-21 17:40 | 57.19783 | 65.07985 | 9628 ft | 102 kts | 255° |
| 2026-04-21 17:40 | 57.19716 | 65.06683 | 9934 ft | 102 kts | 256° |
| 2026-04-21 17:40 | 57.19648 | 65.05381 | 10246 ft | 102 kts | 256° |
| 2026-04-21 17:41 | 57.19581 | 65.04079 | 10559 ft | 102 kts | 256° |
| 2026-04-21 17:41 | 57.19513 | 65.02778 | 10870 ft | 102 kts | 257° |
| 2026-04-21 17:41 | 57.19468 | 65.01916 | 11085 ft | 102 kts | 257° |
| 2026-04-21 17:41 | 57.19376 | 65.00172 | 11510 ft | 102 kts | 257° |
| 2026-04-21 17:42 | 57.19331 | 64.99307 | 11727 ft | 102 kts | 258° |
| 2026-04-21 17:42 | 57.19262 | 64.98000 | 12046 ft | 103 kts | 258° |
| 2026-04-21 17:42 | 57.19171 | 64.96264 | 12475 ft | 103 kts | 258° |
| 2026-04-21 17:42 | 57.19101 | 64.94953 | 12804 ft | 103 kts | 259° |
| 2026-04-21 17:43 | 57.19032 | 64.93640 | 13141 ft | 103 kts | 259° |
| 2026-04-21 17:43 | 57.18985 | 64.92753 | 13366 ft | 103 kts | 259° |
| 2026-04-21 17:43 | 57.18915 | 64.91437 | 13687 ft | 103 kts | 260° |
| 2026-04-21 17:43 | 57.18838 | 64.90025 | 13761 ft | 122 kts | 260° |
| 2026-04-21 17:44 | 57.18751 | 64.88382 | 13763 ft | 138 kts | 261° |
| 2026-04-21 17:44 | 57.18655 | 64.86546 | 13768 ft | 149 kts | 261° |
| 2026-04-21 17:44 | 57.18550 | 64.84590 | 13767 ft | 156 kts | 261° |
| 2026-04-21 17:44 | 57.18441 | 64.82565 | 13768 ft | 161 kts | 261° |
| 2026-04-21 17:45 | 57.18330 | 64.80511 | 13765 ft | 161 kts | 261° |
| 2026-04-21 17:45 | 57.18219 | 64.78467 | 13763 ft | 160 kts | 261° |
| 2026-04-21 17:45 | 57.18108 | 64.76427 | 13763 ft | 160 kts | 261° |
| 2026-04-21 17:45 | 57.17997 | 64.74388 | 13764 ft | 160 kts | 261° |
| 2026-04-21 17:46 | 57.17886 | 64.72352 | 13765 ft | 159 kts | 261° |
| 2026-04-21 17:46 | 57.17774 | 64.70320 | 13766 ft | 159 kts | 261° |
| 2026-04-21 17:46 | 57.17662 | 64.68286 | 13767 ft | 159 kts | 261° |
| 2026-04-21 17:46 | 57.17550 | 64.66252 | 13767 ft | 159 kts | 261° |
| 2026-04-21 17:47 | 57.17438 | 64.64223 | 13768 ft | 159 kts | 261° |
| 2026-04-21 17:47 | 57.17325 | 64.62188 | 13767 ft | 160 kts | 261° |
| 2026-04-21 17:47 | 57.17212 | 64.60158 | 13767 ft | 159 kts | 261° |
| 2026-04-21 17:47 | 57.17099 | 64.58128 | 13767 ft | 159 kts | 261° |
| 2026-04-21 17:48 | 57.16985 | 64.56098 | 13767 ft | 159 kts | 261° |
| 2026-04-21 17:48 | 57.16871 | 64.54066 | 13768 ft | 159 kts | 261° |
| 2026-04-21 17:48 | 57.16757 | 64.52034 | 13767 ft | 159 kts | 261° |
| 2026-04-21 17:48 | 57.16642 | 64.50005 | 13767 ft | 159 kts | 261° |
| 2026-04-21 17:49 | 57.16527 | 64.47974 | 13765 ft | 159 kts | 261° |
| 2026-04-21 17:49 | 57.16414 | 64.45973 | 13764 ft | 159 kts | 261° |
| 2026-04-21 17:49 | 57.16298 | 64.43943 | 13764 ft | 159 kts | 261° |
| 2026-04-21 17:49 | 57.16182 | 64.41914 | 13765 ft | 159 kts | 261° |
| 2026-04-21 17:50 | 57.16066 | 64.39885 | 13764 ft | 159 kts | 261° |
| 2026-04-21 17:50 | 57.15949 | 64.37855 | 13765 ft | 159 kts | 261° |
| 2026-04-21 17:50 | 57.15832 | 64.35825 | 13765 ft | 160 kts | 261° |
| 2026-04-21 17:50 | 57.15715 | 64.33795 | 13765 ft | 159 kts | 261° |
| 2026-04-21 17:51 | 57.15597 | 64.31763 | 13764 ft | 159 kts | 261° |
| 2026-04-21 17:51 | 57.15479 | 64.29731 | 13764 ft | 160 kts | 261° |
| 2026-04-21 17:51 | 57.15359 | 64.27694 | 13758 ft | 160 kts | 259° |
| 2026-04-21 17:51 | 57.15241 | 64.25654 | 13760 ft | 160 kts | 259° |
| 2026-04-21 17:52 | 57.15121 | 64.23610 | 13758 ft | 160 kts | 259° |
| 2026-04-21 17:52 | 57.15002 | 64.21570 | 13758 ft | 160 kts | 259° |
| 2026-04-21 17:52 | 57.14882 | 64.19527 | 13761 ft | 160 kts | 259° |
| 2026-04-21 17:52 | 57.14760 | 64.17486 | 13761 ft | 160 kts | 259° |
| 2026-04-21 17:53 | 57.14639 | 64.15446 | 13761 ft | 160 kts | 259° |
| 2026-04-21 17:53 | 57.14518 | 64.13405 | 13760 ft | 160 kts | 259° |
| 2026-04-21 17:53 | 57.14397 | 64.11366 | 13761 ft | 160 kts | 259° |
| 2026-04-21 17:53 | 57.14275 | 64.09326 | 13761 ft | 160 kts | 259° |
| 2026-04-21 17:54 | 57.14152 | 64.07284 | 13761 ft | 160 kts | 259° |
| 2026-04-21 17:54 | 57.14029 | 64.05240 | 13761 ft | 161 kts | 259° |
| 2026-04-21 17:54 | 57.13906 | 64.03197 | 13755 ft | 160 kts | 259° |
| 2026-04-21 17:54 | 57.13783 | 64.01155 | 13755 ft | 160 kts | 259° |
| 2026-04-21 17:55 | 57.13660 | 63.99117 | 13755 ft | 160 kts | 259° |
| 2026-04-21 17:55 | 57.13536 | 63.97076 | 13756 ft | 160 kts | 259° |
| 2026-04-21 17:55 | 57.13411 | 63.95038 | 13756 ft | 160 kts | 259° |
| 2026-04-21 17:55 | 57.13288 | 63.93024 | 13756 ft | 160 kts | 259° |
| 2026-04-21 17:56 | 57.13163 | 63.90985 | 13757 ft | 160 kts | 259° |
| 2026-04-21 17:56 | 57.13038 | 63.88942 | 13755 ft | 161 kts | 259° |
| 2026-04-21 17:56 | 57.12912 | 63.86900 | 13755 ft | 160 kts | 259° |
| 2026-04-21 17:56 | 57.12786 | 63.84860 | 13756 ft | 160 kts | 259° |
| 2026-04-21 17:57 | 57.12660 | 63.82823 | 13757 ft | 160 kts | 259° |
| 2026-04-21 17:57 | 57.12532 | 63.80779 | 13755 ft | 161 kts | 258° |
| 2026-04-21 17:57 | 57.12405 | 63.78734 | 13753 ft | 161 kts | 258° |
| 2026-04-21 17:57 | 57.12279 | 63.76692 | 13754 ft | 161 kts | 258° |
| 2026-04-21 17:58 | 57.12206 | 63.74633 | 13751 ft | 163 kts | 265° |
| 2026-04-21 17:58 | 57.12235 | 63.72553 | 13750 ft | 163 kts | 265° |
| 2026-04-21 17:58 | 57.12264 | 63.70474 | 13750 ft | 162 kts | 265° |
| 2026-04-21 17:58 | 57.12294 | 63.68397 | 13750 ft | 162 kts | 265° |
| 2026-04-21 17:59 | 57.12321 | 63.66320 | 13751 ft | 163 kts | 263° |
| 2026-04-21 17:59 | 57.12348 | 63.64239 | 13751 ft | 163 kts | 264° |
| 2026-04-21 17:59 | 57.12367 | 63.62159 | 13751 ft | 162 kts | 264° |
| 2026-04-21 17:59 | 57.12389 | 63.60081 | 13750 ft | 162 kts | 263° |
| 2026-04-21 18:00 | 57.12404 | 63.58004 | 13751 ft | 162 kts | 262° |
| 2026-04-21 18:00 | 57.12425 | 63.55926 | 13752 ft | 163 kts | 264° |
| 2026-04-21 18:00 | 57.12456 | 63.53840 | 13751 ft | 163 kts | 264° |
| 2026-04-21 18:00 | 57.12484 | 63.51756 | 13751 ft | 163 kts | 264° |
| 2026-04-21 18:01 | 57.12510 | 63.49678 | 13751 ft | 162 kts | 264° |
| 2026-04-21 18:01 | 57.12536 | 63.47598 | 13751 ft | 163 kts | 264° |
| 2026-04-21 18:01 | 57.12561 | 63.45518 | 13750 ft | 163 kts | 264° |
| 2026-04-21 18:01 | 57.12587 | 63.43441 | 13751 ft | 162 kts | 264° |
| 2026-04-21 18:02 | 57.12612 | 63.41365 | 13752 ft | 162 kts | 264° |
| 2026-04-21 18:02 | 57.12637 | 63.39286 | 13751 ft | 162 kts | 264° |
| 2026-04-21 18:02 | 57.12662 | 63.37208 | 13751 ft | 163 kts | 264° |
| 2026-04-21 18:02 | 57.12686 | 63.35127 | 13751 ft | 163 kts | 264° |
| 2026-04-21 18:03 | 57.12711 | 63.33045 | 13752 ft | 163 kts | 264° |
| 2026-04-21 18:03 | 57.12734 | 63.30964 | 13751 ft | 163 kts | 264° |
| 2026-04-21 18:03 | 57.12757 | 63.28882 | 13751 ft | 163 kts | 264° |
| 2026-04-21 18:03 | 57.12780 | 63.26802 | 13748 ft | 162 kts | 264° |
| 2026-04-21 18:04 | 57.12803 | 63.24722 | 13746 ft | 162 kts | 264° |
| 2026-04-21 18:04 | 57.12825 | 63.22645 | 13745 ft | 162 kts | 263° |
| 2026-04-21 18:04 | 57.12847 | 63.20568 | 13746 ft | 162 kts | 264° |
| 2026-04-21 18:04 | 57.12865 | 63.18779 | 13745 ft | 163 kts | 263° |
| 2026-04-21 18:05 | 57.12881 | 63.16857 | 13650 ft | 167 kts | 263° |
| 2026-04-21 18:05 | 57.12901 | 63.14691 | 13536 ft | 171 kts | 264° |
| 2026-04-21 18:05 | 57.12925 | 63.12528 | 13536 ft | 167 kts | 264° |
| 2026-04-21 18:06 | 57.12948 | 63.10400 | 13535 ft | 166 kts | 264° |
| 2026-04-21 18:06 | 57.12969 | 63.08294 | 13535 ft | 164 kts | 263° |
| 2026-04-21 18:06 | 57.12987 | 63.06192 | 13535 ft | 164 kts | 263° |
| 2026-04-21 18:06 | 57.13007 | 63.04100 | 13537 ft | 163 kts | 263° |
| 2026-04-21 18:07 | 57.13026 | 63.02013 | 13541 ft | 163 kts | 263° |
| 2026-04-21 18:07 | 57.13045 | 62.99925 | 13556 ft | 163 kts | 261° |
| 2026-04-21 18:07 | 57.12987 | 62.97873 | 13537 ft | 158 kts | 252° |
| 2026-04-21 18:07 | 57.12734 | 62.95928 | 13538 ft | 155 kts | 250° |
| 2026-04-21 18:08 | 57.12489 | 62.93991 | 13539 ft | 156 kts | 251° |
| 2026-04-21 18:08 | 57.12267 | 62.92037 | 13539 ft | 156 kts | 252° |
| 2026-04-21 18:08 | 57.12056 | 62.90089 | 13540 ft | 155 kts | 252° |
| 2026-04-21 18:08 | 57.11845 | 62.88130 | 13540 ft | 157 kts | 252° |
| 2026-04-21 18:09 | 57.11633 | 62.86160 | 13536 ft | 157 kts | 252° |
| 2026-04-21 18:09 | 57.11423 | 62.84206 | 13538 ft | 158 kts | 252° |
| 2026-04-21 18:09 | 57.11208 | 62.82220 | 13536 ft | 158 kts | 252° |
| 2026-04-21 18:09 | 57.10993 | 62.80232 | 13536 ft | 159 kts | 252° |
| 2026-04-21 18:10 | 57.10778 | 62.78242 | 13537 ft | 159 kts | 252° |
| 2026-04-21 18:10 | 57.10561 | 62.76245 | 13534 ft | 159 kts | 252° |
| 2026-04-21 18:10 | 57.10344 | 62.74249 | 13534 ft | 159 kts | 252° |
| 2026-04-21 18:10 | 57.10127 | 62.72252 | 13534 ft | 159 kts | 252° |
| 2026-04-21 18:11 | 57.09910 | 62.70260 | 13534 ft | 159 kts | 252° |
| 2026-04-21 18:11 | 57.09692 | 62.68268 | 13534 ft | 159 kts | 252° |
| 2026-04-21 18:11 | 57.09474 | 62.66273 | 13533 ft | 159 kts | 252° |
| 2026-04-21 18:11 | 57.09256 | 62.64282 | 13533 ft | 159 kts | 252° |
| 2026-04-21 18:12 | 57.09037 | 62.62292 | 13533 ft | 159 kts | 252° |
| 2026-04-21 18:12 | 57.08819 | 62.60304 | 13533 ft | 159 kts | 252° |
| 2026-04-21 18:12 | 57.08600 | 62.58315 | 13533 ft | 159 kts | 252° |
| 2026-04-21 18:12 | 57.08381 | 62.56329 | 13533 ft | 158 kts | 252° |
| 2026-04-21 18:13 | 57.08162 | 62.54346 | 13536 ft | 158 kts | 252° |
| 2026-04-21 18:13 | 57.07943 | 62.52364 | 13540 ft | 158 kts | 252° |
| 2026-04-21 18:13 | 57.07723 | 62.50375 | 13541 ft | 159 kts | 252° |
| 2026-04-21 18:13 | 57.07502 | 62.48385 | 13539 ft | 159 kts | 252° |
| 2026-04-21 18:14 | 57.07063 | 62.44438 | 13540 ft | 159 kts | 252° |
| 2026-04-21 18:14 | 57.06842 | 62.42452 | 13539 ft | 159 kts | 252° |
| 2026-04-21 18:14 | 57.06621 | 62.40467 | 13553 ft | 158 kts | 249° |
| 2026-04-21 18:15 | 57.06399 | 62.38490 | 13535 ft | 157 kts | 250° |
| 2026-04-21 18:15 | 57.06182 | 62.36527 | 13535 ft | 156 kts | 250° |
| 2026-04-21 18:15 | 57.05963 | 62.34578 | 13535 ft | 155 kts | 250° |
| 2026-04-21 18:15 | 57.05744 | 62.32634 | 13533 ft | 155 kts | 250° |
| 2026-04-21 18:16 | 57.05527 | 62.30702 | 13534 ft | 154 kts | 249° |
| 2026-04-21 18:16 | 57.05309 | 62.28769 | 13530 ft | 154 kts | 249° |
| 2026-04-21 18:16 | 57.05092 | 62.26843 | 13532 ft | 154 kts | 250° |
| 2026-04-21 18:16 | 57.04874 | 62.24917 | 13530 ft | 154 kts | 249° |
| 2026-04-21 18:17 | 57.04656 | 62.22992 | 13536 ft | 154 kts | 249° |
| 2026-04-21 18:17 | 57.04439 | 62.21073 | 13536 ft | 153 kts | 249° |
| 2026-04-21 18:17 | 57.04222 | 62.19157 | 13538 ft | 153 kts | 249° |
| 2026-04-21 18:17 | 57.04004 | 62.17238 | 13537 ft | 154 kts | 249° |
| 2026-04-21 18:18 | 57.03785 | 62.15318 | 13537 ft | 154 kts | 249° |
| 2026-04-21 18:18 | 57.03567 | 62.13399 | 13557 ft | 154 kts | 248° |
| 2026-04-21 18:18 | 57.03346 | 62.11473 | 13535 ft | 154 kts | 249° |
| 2026-04-21 18:18 | 57.03128 | 62.09550 | 13535 ft | 153 kts | 249° |
| 2026-04-21 18:19 | 57.02905 | 62.07619 | 13535 ft | 156 kts | 249° |
| 2026-04-21 18:19 | 57.02680 | 62.05664 | 13535 ft | 157 kts | 249° |
| 2026-04-21 18:19 | 57.02455 | 62.03701 | 13536 ft | 157 kts | 249° |
| 2026-04-21 18:19 | 57.02229 | 62.01733 | 13535 ft | 158 kts | 249° |
| 2026-04-21 18:20 | 57.02003 | 61.99762 | 13538 ft | 158 kts | 249° |
| 2026-04-21 18:20 | 57.01779 | 61.97821 | 13537 ft | 158 kts | 249° |
| 2026-04-21 18:20 | 57.01552 | 61.95851 | 13539 ft | 158 kts | 249° |
| 2026-04-21 18:20 | 57.01324 | 61.93882 | 13539 ft | 158 kts | 249° |
| 2026-04-21 18:21 | 57.01096 | 61.91909 | 13535 ft | 158 kts | 249° |
| 2026-04-21 18:21 | 57.00868 | 61.89940 | 13535 ft | 158 kts | 248° |
| 2026-04-21 18:21 | 57.00638 | 61.87967 | 13536 ft | 158 kts | 249° |
| 2026-04-21 18:21 | 57.00408 | 61.85993 | 13537 ft | 158 kts | 249° |
| 2026-04-21 18:22 | 57.00179 | 61.84023 | 13535 ft | 158 kts | 248° |
| 2026-04-21 18:22 | 56.99949 | 61.82050 | 13563 ft | 158 kts | 245° |
| 2026-04-21 18:22 | 56.99716 | 61.80071 | 13531 ft | 159 kts | 247° |
| 2026-04-21 18:22 | 56.99488 | 61.78096 | 13531 ft | 158 kts | 246° |
| 2026-04-21 18:23 | 56.99262 | 61.76151 | 13528 ft | 151 kts | 246° |
| 2026-04-21 18:23 | 56.99056 | 61.74341 | 13528 ft | 140 kts | 245° |
| 2026-04-21 18:23 | 56.98858 | 61.72651 | 13528 ft | 132 kts | 245° |
| 2026-04-21 18:23 | 56.98548 | 61.71164 | 13524 ft | 119 kts | 228° |
| 2026-04-21 18:24 | 56.98078 | 61.69964 | 13526 ft | 114 kts | 226° |
| 2026-04-21 18:24 | 56.97612 | 61.68827 | 13493 ft | 113 kts | 225° |
| 2026-04-21 18:24 | 56.97097 | 61.67597 | 13150 ft | 128 kts | 225° |
| 2026-04-21 18:24 | 56.96520 | 61.66258 | 12748 ft | 139 kts | 225° |
| 2026-04-21 18:25 | 56.95895 | 61.64834 | 12339 ft | 147 kts | 225° |
| 2026-04-21 18:25 | 56.95240 | 61.63354 | 11953 ft | 152 kts | 225° |
| 2026-04-21 18:25 | 56.94565 | 61.61841 | 11566 ft | 155 kts | 225° |
| 2026-04-21 18:25 | 56.93885 | 61.60323 | 11193 ft | 157 kts | 225° |
| 2026-04-21 18:26 | 56.93184 | 61.58767 | 10808 ft | 159 kts | 225° |
| 2026-04-21 18:26 | 56.92473 | 61.57197 | 10433 ft | 161 kts | 225° |
| 2026-04-21 18:26 | 56.91754 | 61.55613 | 10061 ft | 163 kts | 225° |
| 2026-04-21 18:26 | 56.91024 | 61.54015 | 9695 ft | 164 kts | 225° |
| 2026-04-21 18:27 | 56.90290 | 61.52411 | 9306 ft | 165 kts | 225° |
| 2026-04-21 18:27 | 56.89553 | 61.50809 | 8904 ft | 164 kts | 225° |
| 2026-04-21 18:27 | 56.88814 | 61.49224 | 8578 ft | 162 kts | 225° |
| 2026-04-21 18:27 | 56.88093 | 61.47693 | 8321 ft | 157 kts | 225° |
| 2026-04-21 18:28 | 56.87383 | 61.46200 | 8063 ft | 154 kts | 225° |
| 2026-04-21 18:28 | 56.86677 | 61.44731 | 7792 ft | 153 kts | 225° |
| 2026-04-21 18:28 | 56.85971 | 61.43275 | 7528 ft | 153 kts | 225° |
| 2026-04-21 18:28 | 56.85263 | 61.41822 | 7276 ft | 153 kts | 225° |
| 2026-04-21 18:29 | 56.84556 | 61.40373 | 7016 ft | 153 kts | 225° |
| 2026-04-21 18:29 | 56.83835 | 61.38954 | 6769 ft | 152 kts | 217° |
| 2026-04-21 18:29 | 56.82878 | 61.38487 | 6730 ft | 142 kts | 174° |
| 2026-04-21 18:29 | 56.81970 | 61.39169 | 6583 ft | 145 kts | 156° |
| 2026-04-21 18:30 | 56.81071 | 61.40017 | 6341 ft | 148 kts | 165° |
| 2026-04-21 18:30 | 56.80061 | 61.39875 | 6088 ft | 148 kts | 207° |
| 2026-04-21 18:30 | 56.79329 | 61.38566 | 5832 ft | 149 kts | 233° |
| 2026-04-21 18:30 | 56.78738 | 61.37051 | 5571 ft | 148 kts | 235° |
| 2026-04-21 18:31 | 56.78148 | 61.35514 | 5319 ft | 148 kts | 235° |
| 2026-04-21 18:31 | 56.77553 | 61.33993 | 5066 ft | 147 kts | 235° |
| 2026-04-21 18:31 | 56.76948 | 61.32482 | 4806 ft | 147 kts | 236° |
| 2026-04-21 18:31 | 56.76538 | 61.30791 | 4543 ft | 146 kts | 255° |
| 2026-04-21 18:32 | 56.76272 | 61.28998 | 4281 ft | 147 kts | 255° |
| 2026-04-21 18:32 | 56.75974 | 61.27224 | 4016 ft | 146 kts | 253° |
| 2026-04-21 18:32 | 56.75649 | 61.25464 | 3755 ft | 147 kts | 252° |
| 2026-04-21 18:32 | 56.75314 | 61.23715 | 3500 ft | 146 kts | 252° |
| 2026-04-21 18:33 | 56.74973 | 61.21964 | 3241 ft | 147 kts | 252° |
| 2026-04-21 18:33 | 56.74630 | 61.20212 | 2984 ft | 147 kts | 252° |
| 2026-04-21 18:33 | 56.74281 | 61.18456 | 2723 ft | 149 kts | 252° |
| 2026-04-21 18:33 | 56.73939 | 61.16697 | 2684 ft | 146 kts | 252° |
| 2026-04-21 18:34 | 56.73606 | 61.14963 | 2687 ft | 144 kts | 253° |
| 2026-04-21 18:34 | 56.73326 | 61.13207 | 2685 ft | 144 kts | 255° |
| 2026-04-21 18:34 | 56.73061 | 61.11447 | 2682 ft | 143 kts | 259° |
| 2026-04-21 18:34 | 56.73019 | 61.09646 | 2685 ft | 143 kts | 270° |
| 2026-04-21 18:35 | 56.73037 | 61.08449 | 2686 ft | 143 kts | 272° |
| 2026-04-21 18:35 | 56.73105 | 61.06033 | 2686 ft | 143 kts | 273° |
| 2026-04-21 18:35 | 56.73173 | 61.04255 | 2686 ft | 143 kts | 274° |
| 2026-04-21 18:35 | 56.73247 | 61.02453 | 2687 ft | 143 kts | 274° |
| 2026-04-21 18:36 | 56.73320 | 61.00645 | 2685 ft | 143 kts | 274° |
| 2026-04-21 18:36 | 56.73392 | 60.98854 | 2608 ft | 140 kts | 274° |
| 2026-04-21 18:36 | 56.73464 | 60.97096 | 2426 ft | 138 kts | 274° |
| 2026-04-21 18:36 | 56.73534 | 60.95415 | 2233 ft | 124 kts | 273° |
| 2026-04-21 18:37 | 56.73572 | 60.94442 | 2135 ft | 111 kts | 272° |
| 2026-04-21 18:37 | 56.73626 | 60.93099 | 1972 ft | 103 kts | 272° |
| 2026-04-21 18:37 | 56.73676 | 60.91821 | 1827 ft | 100 kts | 272° |
| 2026-04-21 18:37 | 56.73728 | 60.90551 | 1674 ft | 101 kts | 272° |
| 2026-04-21 18:38 | 56.73778 | 60.89268 | 1521 ft | 102 kts | 273° |
| 2026-04-21 18:38 | 56.73829 | 60.87976 | 1368 ft | 102 kts | 274° |
| 2026-04-21 18:38 | 56.73881 | 60.86677 | 1218 ft | 103 kts | 274° |
| 2026-04-21 18:38 | 56.73933 | 60.85375 | 1075 ft | 103 kts | 275° |
| 2026-04-21 18:39 | 56.73983 | 60.84072 | 943 ft | 103 kts | 274° |
| 2026-04-21 18:39 | 56.74036 | 60.82780 | 827 ft | 101 kts | 274° |
| 2026-04-21 18:39 | 56.74087 | 60.81595 | 767 ft | 76 kts | 275° |
| 2026-04-21 18:39 | 56.74120 | 60.80822 | 766 ft | 53 kts | 274° |
| 2026-04-21 18:40 | 56.74206 | 60.80540 | 768 ft | 17 kts | 52° |
| 2026-04-21 18:40 | 56.74298 | 60.80599 | 769 ft | 13 kts | 8° |
| 2026-04-21 18:40 | 56.74380 | 60.80619 | 769 ft | 11 kts | 8° |
| 2026-04-21 18:40 | 56.74453 | 60.80638 | 768 ft | 10 kts | 5° |
| 2026-04-21 18:41 | 56.74522 | 60.80643 | 768 ft | 9 kts | 0° |
| 2026-04-21 18:41 | 56.74579 | 60.80645 | 769 ft | 7 kts | 1° |
| 2026-04-21 18:41 | 56.74628 | 60.80647 | 769 ft | 7 kts | 0° |
| 2026-04-21 18:41 | 56.74673 | 60.80647 | 769 ft | 6 kts | 357° |
| 2026-04-21 18:42 | 56.74717 | 60.80639 | 769 ft | 7 kts | 340° |
| 2026-04-21 18:42 | 56.74746 | 60.80563 | 768 ft | 8 kts | 316° |
| 2026-04-21 18:42 | 56.74796 | 60.80546 | 768 ft | 0 kts | 360° |